AirNav   Advertisement
 
 1109 users online  

TS86 Community Hospital Heliport
Missouri City, Texas, USA

GOING TO MISSOURI CITY?


FAA INFORMATION EFFECTIVE 20 JULY 2017

Location

FAA Identifier: TS86
Lat/Long: 29-33-45.8480N / 095-33-50.8010W
29-33.764133N / 095-33.846683W
29.5627356 / -95.5641114
(estimated)
Elevation: 70 ft. / 21 m (estimated)
Variation: 06E (1985)
Time zone: UTC -5 (UTC -6 during Standard Time)
Zip code: 77459

Heliport Operations

Heliport use: Private use, MEDICAL.
Activation date: 07/1984
Control tower: no
ARTCC: HOUSTON CENTER
FSS: MONTGOMERY COUNTY FLIGHT SERVICE STATION
FOR FP FILING CALL CXO FSS 1-800-833-5602.
Attendance: CONTINUOUS
Wind indicator: yes
Segmented circle: no

Heliport Communications

WX AWOS-3 at AXH (6 nm SE): 123.625 (281-431-6572)
WX ASOS at SGR (6 nm NW): 118.125 (281-242-7605)
WX ASOS at HOU (16 nm E): PHONE 713-847-1462
WX ASOS at LVJ (17 nm E): 118.525 (281-992-1853)

Nearby radio navigation aids

VOR radial/distance  VOR name  Freq  Var
HUBr245/16.0HOBBY VOR/DME117.1005E
IAHr201/26.2HUMBLE VORTAC116.6005E
ELAr091/39.7EAGLE LAKE VOR/DME116.4008E

 
NDB name  Hdg/Dist  Freq  Var  ID
SANJAC251/26.634705EJPA .--- .--. .-
NIXIN210/31.632605EBVP -... ...- .--.
WHARTON053/35.924506EARM .- .-. --

Heliport Services

Runway Information

Helipad H1

Dimensions: 55 x 55 ft. / 17 x 17 m
Surface: concrete
PERIMETER LGTS ON HELIPAD.
Traffic pattern: leftleft

Heliport Ownership and Management from official FAA records

Ownership: Privately-owned
Owner: FT BEND COMMUNITY HOSPITAL
3803 FM 1092 AT HWY 6
MISSOURI CITY, TX 77459
Phone 713-499-4800
Manager: MARSHA POWERS, ADM.
3803 FM 1092 AT HWY 6
MISSOUR CITY, TX 77459
Phone 713-499-4800
AND RONALD L. KOZLOVSKY, ENGINEER.

Additional Remarks

A52-H1 35' LGT STANDARD APRXLY 75' NORTH OF HELIPAD; 220' OFFICE BLDG 41' SW; 200' HOSPITAL BLDG 24' NW.

Instrument Procedures

There are no published instrument procedures at TS86.

Some nearby airports with instrument procedures:

KAXH - Houston Southwest Airport (6 nm SE)
KSGR - Sugar Land Regional Airport (6 nm NW)
KHOU - William P Hobby Airport (16 nm E)
KIWS - West Houston Airport (16 nm N)
KLVJ - Pearland Regional Airport (17 nm E)
 
Loc | Ops | Rwys | IFR | FBO | Links
Com | Nav | Svcs | Stats | Notes


 
Area around TS86 (Community Hospital Heliport)
 
Road maps at: MapQuest Bing Google
 
Aerial photo
No photo
 
Sectional chart

 
Airport distance calculator
Flying to Community Hospital Heliport? Find the distance to fly.

From to TS86

Sunrise and sunset
Times for 22-Jul-2017
 Local
(UTC-5)
 Zulu
(UTC)
Morning civil twilight06:1111:11
Sunrise06:3711:37
Sunset20:2001:20
Evening civil twilight20:4601:46

Current date and time
Zulu (UTC)  22-Jul-2017 15:47:56
Local (UTC-5)  22-Jul-2017 10:47:56
 
METAR
KSGR 
6nm NW 
221516Z 21004KT 10SM FEW025 SCT042 BKN055 31/25 A3001 RMK AO2 T03060250
KAXH 
6nm SE 
221535Z AUTO 20004KT 10SM SCT022 30/26 A3002 RMK AO2 LTG DSNT SE T03000255
KHOU 
15nm E 
221453Z VRB06KT 10SM BKN030 BKN150 BKN250 32/24 A3000 RMK AO2 SLP164 T03170244 51015
KLVJ 
17nm E 
221453Z AUTO VRB04KT 10SM CLR 31/24 A3002 RMK AO2 SLP166 T03060244 51016 $
TAF
KSGR 
6nm NW 
221140Z 2212/2312 21003KT P6SM SKC FM221700 19007KT P6SM VCTS SCT040CB SCT250 TEMPO 2219/2222 5SM TSRA BKN030CB FM222200 16009KT P6SM VCSH BKN050 BKN250 FM230300 16005KT P6SM FEW020 SCT150 BKN200
KHOU 
15nm E 
221140Z 2212/2312 19003KT P6SM FEW020 SCT250 FM221600 19007KT P6SM VCTS SCT040CB SCT250 TEMPO 2218/2221 5SM TSRA BKN030CB FM222200 16008KT P6SM VCSH BKN050 BKN250 FM230300 18005KT P6SM FEW020 SCT150 BKN200
NOTAMs
Click for the latest NOTAMs
NOTAMs are issued by the DoD/FAA and will open in a separate window not controlled by AirNav.

 

 
 

Would you like to see your business listed on this page?

 If your business provides an interesting product or service to pilots, flight crews, aircraft, or users of the Community Hospital Heliport, you should consider listing it here.  To start the listing process, click on the button below
 
Add a business
 

Other Pages about Community Hospital Heliport

Update a link
 
Copyright © AirNav, LLC. All rights reserved. Privacy Policy  Contact